createdAt,value
2018-05-02T00:01:22.220Z,52.87
2018-05-02T00:05:24.706Z,51.64
2018-05-02T00:09:27.156Z,51.28
2018-05-02T00:13:29.636Z,51.84
2018-05-02T00:17:32.110Z,52.08
2018-05-02T00:21:34.586Z,52.94
2018-05-02T00:25:37.099Z,52.56
2018-05-02T00:29:39.556Z,52.54
2018-05-02T00:33:42.051Z,52.54
2018-05-02T00:37:44.497Z,51.97
2018-05-02T00:41:47.001Z,51.96
2018-05-02T00:45:49.929Z,51.74
2018-05-02T00:49:52.406Z,51.47
2018-05-02T00:53:54.875Z,51.31
2018-05-02T00:57:57.355Z,51.31
2018-05-02T01:01:59.798Z,51.35
2018-05-02T01:06:02.277Z,51.56
2018-05-02T01:10:04.767Z,51.49
2018-05-02T01:14:07.244Z,51.71
2018-05-02T01:18:09.729Z,51.54
2018-05-02T01:22:12.182Z,51.58
2018-05-02T01:26:14.655Z,51.48
2018-05-02T01:30:17.108Z,51.11
2018-05-02T01:34:19.607Z,50.98
2018-05-02T01:38:22.075Z,51.31
2018-05-02T01:42:24.558Z,51.47
2018-05-02T01:46:27.042Z,51.89
2018-05-02T01:50:29.494Z,52.09
2018-05-02T01:54:31.966Z,51.66
2018-05-02T01:58:34.443Z,52.12
2018-05-02T02:02:36.927Z,52.61
2018-05-02T02:06:39.413Z,53.19
2018-05-02T02:10:41.894Z,53.58
2018-05-02T02:14:44.379Z,53.96
2018-05-02T02:18:46.843Z,54.09
2018-05-02T02:22:49.323Z,54.21
2018-05-02T02:26:51.809Z,54.28
2018-05-02T02:30:54.296Z,54.31
2018-05-02T02:34:56.778Z,54.80
2018-05-02T02:38:59.340Z,55.34
2018-05-02T02:43:01.741Z,55.31
2018-05-02T02:47:04.233Z,55.15
2018-05-02T02:51:06.700Z,55.63
2018-05-02T02:55:09.603Z,56.51
2018-05-02T02:59:12.095Z,56.65
2018-05-02T03:03:14.583Z,56.89
2018-05-02T03:07:17.027Z,56.98
2018-05-02T03:11:19.510Z,56.90
2018-05-02T03:15:21.968Z,57.08
2018-05-02T03:19:24.442Z,57.09
2018-05-02T03:23:26.916Z,57.16
2018-05-02T03:27:29.389Z,57.21
2018-05-02T03:31:31.871Z,57.22
2018-05-02T03:35:34.348Z,57.28
2018-05-02T03:39:36.837Z,57.62
2018-05-02T03:43:39.287Z,57.74
2018-05-02T03:47:41.770Z,57.51
2018-05-02T03:51:44.216Z,57.43
2018-05-02T03:55:46.692Z,57.81
2018-05-02T04:00:01.152Z,58.02
2018-05-02T04:04:15.474Z,58.10
2018-05-02T04:08:17.943Z,57.97
2018-05-02T04:12:20.441Z,57.74
2018-05-02T04:16:22.910Z,57.31
2018-05-02T04:20:25.414Z,57.04
2018-05-02T04:24:27.862Z,56.98
2018-05-02T04:28:30.339Z,56.57
2018-05-02T04:32:32.833Z,56.11
2018-05-02T04:36:35.286Z,56.10
2018-05-02T04:40:37.767Z,55.86
2018-05-02T04:44:40.247Z,56.02
2018-05-02T04:48:42.696Z,56.29
2018-05-02T04:52:45.215Z,56.06
2018-05-02T04:56:47.669Z,55.69
2018-05-02T05:00:50.146Z,55.84
2018-05-02T05:04:52.599Z,55.31
2018-05-02T05:08:55.307Z,55.44
2018-05-02T05:12:57.785Z,55.51
2018-05-02T05:17:00.266Z,55.56
2018-05-02T05:21:02.716Z,56.11
2018-05-02T05:25:05.199Z,56.13
2018-05-02T05:29:07.682Z,56.09
2018-05-02T05:33:10.163Z,55.71
2018-05-02T05:37:12.649Z,55.39
2018-05-02T05:41:15.101Z,54.96
2018-05-02T05:45:17.583Z,55.15
2018-05-02T05:49:20.109Z,55.76
2018-05-02T05:53:22.589Z,55.33
2018-05-02T05:57:25.060Z,55.33
2018-05-02T06:01:27.539Z,55.29
2018-05-02T06:05:30.017Z,54.99
2018-05-02T06:09:32.491Z,54.05
2018-05-02T06:13:34.955Z,54.02
2018-05-02T06:17:37.409Z,53.68
2018-05-02T06:21:39.894Z,53.48
2018-05-02T06:25:43.245Z,53.36
2018-05-02T06:29:45.746Z,53.01
2018-05-02T06:33:49.082Z,53.00
2018-05-02T06:37:51.580Z,52.39
2018-05-02T06:41:54.027Z,53.43
2018-05-02T06:45:56.507Z,52.22
2018-05-02T06:49:58.977Z,51.77
2018-05-02T06:54:01.451Z,52.09
2018-05-02T06:58:03.939Z,52.23
2018-05-02T07:02:06.427Z,52.13
2018-05-02T07:06:08.896Z,51.60
2018-05-02T07:10:11.373Z,50.71
2018-05-02T07:14:13.853Z,50.51
2018-05-02T07:18:16.322Z,50.92
2018-05-02T07:22:18.785Z,49.99
2018-05-02T07:26:21.256Z,50.19
2018-05-02T07:30:23.729Z,49.99
2018-05-02T07:34:26.203Z,49.03
2018-05-02T07:38:28.689Z,48.69
2018-05-02T07:42:31.137Z,48.81
2018-05-02T07:46:33.619Z,49.01
2018-05-02T07:50:36.111Z,49.08
2018-05-02T07:54:38.561Z,48.33
2018-05-02T07:58:41.055Z,48.07
2018-05-02T08:02:43.511Z,47.45
2018-05-02T08:06:45.993Z,47.30
2018-05-02T08:10:48.476Z,47.46
2018-05-02T08:14:50.920Z,48.21
2018-05-02T08:18:53.407Z,47.45
2018-05-02T08:22:55.876Z,47.36
2018-05-02T08:26:58.363Z,47.72
2018-05-02T08:31:00.847Z,47.38
2018-05-02T08:35:03.305Z,47.06
2018-05-02T08:39:05.787Z,46.60
2018-05-02T08:43:08.273Z,46.28
2018-05-02T08:47:10.758Z,46.52
2018-05-02T08:51:13.240Z,46.25
2018-05-02T08:55:15.695Z,45.49
2018-05-02T08:59:18.174Z,45.26
2018-05-02T09:03:20.651Z,45.75
2018-05-02T09:07:23.126Z,45.19
2018-05-02T09:11:25.574Z,45.26
2018-05-02T09:15:28.096Z,45.17
2018-05-02T09:19:30.555Z,44.23
2018-05-02T09:23:33.017Z,44.35
2018-05-02T09:27:35.511Z,44.44
2018-05-02T09:31:37.986Z,45.01
2018-05-02T09:35:40.483Z,44.26
2018-05-02T09:39:42.967Z,43.61
2018-05-02T09:43:45.449Z,43.65
2018-05-02T09:47:47.935Z,44.07
2018-05-02T09:51:50.421Z,44.61
2018-05-02T09:55:52.885Z,44.23
2018-05-02T09:59:55.374Z,44.13
2018-05-02T10:03:57.868Z,43.95
2018-05-02T10:08:00.370Z,44.30
2018-05-02T10:12:02.850Z,43.50
2018-05-02T10:16:05.320Z,43.85
2018-05-02T10:20:07.803Z,43.54
2018-05-02T10:24:10.279Z,43.90
2018-05-02T10:28:12.769Z,43.92
2018-05-02T10:32:15.250Z,44.14
2018-05-02T10:36:17.751Z,43.94
2018-05-02T10:40:20.243Z,44.08
2018-05-02T10:44:22.714Z,43.75
2018-05-02T10:48:25.216Z,43.66
2018-05-02T10:52:27.672Z,43.51
2018-05-02T10:56:30.158Z,43.23
2018-05-02T11:00:32.643Z,43.28
2018-05-02T11:04:35.126Z,43.58
2018-05-02T11:08:37.611Z,43.63
2018-05-02T11:12:40.095Z,43.95
2018-05-02T11:16:42.584Z,44.15
2018-05-02T11:20:45.985Z,43.98
2018-05-02T11:24:48.473Z,44.17
2018-05-02T11:28:50.959Z,44.51
2018-05-02T11:32:53.423Z,43.86
2018-05-02T11:36:55.878Z,43.41
2018-05-02T11:40:58.363Z,43.68
2018-05-02T11:45:00.838Z,43.44
2018-05-02T11:49:03.320Z,43.65
2018-05-02T11:53:05.808Z,44.08
2018-05-02T11:57:08.275Z,43.82
2018-05-02T12:01:10.762Z,43.35
2018-05-02T12:05:13.250Z,42.88
2018-05-02T12:09:15.708Z,42.74
2018-05-02T12:13:18.209Z,43.08
2018-05-02T12:17:20.696Z,42.70
2018-05-02T12:21:23.185Z,42.94
2018-05-02T12:25:25.723Z,42.74
2018-05-02T12:29:28.157Z,42.58
2018-05-02T12:33:30.639Z,42.92
2018-05-02T12:37:33.121Z,42.92
2018-05-02T12:41:35.591Z,42.36
2018-05-02T12:45:38.068Z,42.57
2018-05-02T12:49:40.528Z,42.58
2018-05-02T12:53:43.026Z,42.90
2018-05-02T12:57:45.486Z,42.94
2018-05-02T13:01:47.980Z,42.67
2018-05-02T13:05:50.433Z,42.93
2018-05-02T13:09:52.925Z,43.00
2018-05-02T13:13:55.374Z,42.92
2018-05-02T13:17:57.862Z,43.23
2018-05-02T13:22:00.323Z,43.30
2018-05-02T13:26:02.807Z,43.62
2018-05-02T13:30:05.289Z,43.31
2018-05-02T13:34:07.744Z,43.22
2018-05-02T13:38:10.219Z,43.75
2018-05-02T13:42:12.696Z,43.31
2018-05-02T13:46:15.183Z,43.36
2018-05-02T13:50:17.664Z,43.76
2018-05-02T13:54:20.154Z,44.46
2018-05-02T13:58:22.615Z,43.96
2018-05-02T14:02:25.098Z,43.92
2018-05-02T14:06:27.581Z,44.34
2018-05-02T14:10:31.094Z,44.47
2018-05-02T14:14:33.584Z,44.24
2018-05-02T14:18:36.061Z,44.30
2018-05-02T14:22:38.548Z,44.47
2018-05-02T14:26:41.036Z,44.81
2018-05-02T14:30:43.535Z,45.29
2018-05-02T14:34:46.026Z,44.30
2018-05-02T14:38:48.516Z,44.12
2018-05-02T14:42:51.006Z,43.94
2018-05-02T14:46:53.453Z,43.80
2018-05-02T14:50:55.937Z,43.99
2018-05-02T14:54:58.427Z,43.80
2018-05-02T14:59:00.912Z,44.66
2018-05-02T15:03:03.392Z,43.99
2018-05-02T15:07:05.868Z,43.94
2018-05-02T15:11:08.355Z,45.07
2018-05-02T15:15:10.814Z,48.69
2018-05-02T15:19:13.303Z,52.05
2018-05-02T15:23:15.800Z,53.52
2018-05-02T15:27:18.283Z,54.32
2018-05-02T15:31:20.743Z,54.64
2018-05-02T15:35:23.240Z,55.61
2018-05-02T15:39:25.711Z,55.47
2018-05-02T15:43:28.200Z,56.22
2018-05-02T15:47:30.684Z,57.04
2018-05-02T15:51:33.135Z,56.10
2018-05-02T15:55:35.615Z,57.49
2018-05-02T15:59:38.093Z,58.38
2018-05-02T16:03:40.560Z,59.64
2018-05-02T16:07:43.049Z,60.42
2018-05-02T16:11:45.548Z,60.10
2018-05-02T16:15:48.056Z,59.44
2018-05-02T16:19:50.568Z,59.29
2018-05-02T16:23:53.068Z,59.76
2018-05-02T16:27:55.618Z,59.47
2018-05-02T16:31:58.027Z,58.35
2018-05-02T16:36:00.524Z,59.41
2018-05-02T16:40:02.987Z,60.08
2018-05-02T16:44:05.470Z,59.76
2018-05-02T16:48:07.927Z,60.24
2018-05-02T16:52:10.439Z,60.03
2018-05-02T16:56:12.929Z,59.75
2018-05-02T17:00:15.423Z,60.76
2018-05-02T17:04:18.038Z,61.48
2018-05-02T17:08:20.386Z,61.94
2018-05-02T17:12:22.839Z,62.21
2018-05-02T17:16:25.324Z,61.32
2018-05-02T17:20:27.817Z,60.42
2018-05-02T17:24:30.272Z,59.40
2018-05-02T17:28:32.765Z,60.86
2018-05-02T17:32:35.248Z,61.42
2018-05-02T17:36:37.707Z,61.45
2018-05-02T17:40:40.195Z,60.65
2018-05-02T17:44:42.646Z,60.38
2018-05-02T17:48:45.144Z,59.70
2018-05-02T17:52:47.692Z,58.92
2018-05-02T17:56:50.143Z,59.23
2018-05-02T18:00:52.607Z,58.02
2018-05-02T18:04:55.089Z,58.11
2018-05-02T18:08:57.575Z,57.18
2018-05-02T18:13:00.032Z,55.45
2018-05-02T18:17:02.512Z,55.08
2018-05-02T18:21:04.995Z,54.65
2018-05-02T18:25:07.476Z,54.98
2018-05-02T18:29:09.966Z,53.91
2018-05-02T18:35:58.852Z,53.99
2018-05-02T18:40:01.303Z,55.30
2018-05-02T18:44:03.805Z,54.89
2018-05-02T18:48:06.262Z,53.60
2018-05-02T18:52:08.739Z,52.80
2018-05-02T18:56:11.218Z,53.63
2018-05-02T19:00:13.675Z,53.92
2018-05-02T19:04:16.152Z,54.20
2018-05-02T19:08:18.684Z,53.64
2018-05-02T19:12:21.259Z,53.98
2018-05-02T19:16:23.788Z,53.67
2018-05-02T19:20:31.965Z,53.74
2018-05-02T19:24:40.105Z,53.57
2018-05-02T19:28:42.575Z,53.64
2018-05-02T19:37:19.931Z,53.16
2018-05-02T19:41:28.080Z,53.67
2018-05-02T19:45:30.562Z,53.23
2018-05-02T19:49:33.067Z,52.96
2018-05-02T19:53:35.510Z,53.21
2018-05-02T19:57:37.993Z,53.29
2018-05-02T20:01:45.976Z,53.59
2018-05-02T20:05:48.463Z,52.87
2018-05-02T20:09:56.419Z,52.18
2018-05-02T20:14:11.597Z,51.75
2018-05-02T20:18:14.056Z,52.61
2018-05-02T20:22:16.532Z,52.37
2018-05-02T20:26:19.916Z,52.62
2018-05-02T20:30:22.391Z,53.08
2018-05-02T20:34:25.778Z,53.08
2018-05-02T20:38:28.268Z,54.38
2018-05-02T20:42:30.746Z,54.83
2018-05-02T20:46:34.155Z,56.17
2018-05-02T20:50:36.656Z,57.99
2018-05-02T20:54:39.139Z,59.04
2018-05-02T20:58:42.605Z,59.85
2018-05-02T21:02:45.056Z,60.67
2018-05-02T21:06:47.535Z,60.96
2018-05-02T21:10:49.994Z,61.55
2018-05-02T21:14:52.492Z,62.76
2018-05-02T21:18:54.951Z,63.26
2018-05-02T21:22:57.421Z,63.69
2018-05-02T21:26:59.907Z,64.25
2018-05-02T21:31:02.411Z,64.37
2018-05-02T21:35:04.872Z,64.49
2018-05-02T21:39:07.353Z,65.11
2018-05-02T21:43:09.824Z,65.20
2018-05-02T21:47:12.301Z,65.30
2018-05-02T21:51:15.780Z,65.82
2018-05-02T21:59:20.031Z,65.94
2018-05-02T22:03:22.491Z,65.94
2018-05-02T22:07:24.973Z,66.02
2018-05-02T22:11:27.444Z,66.16
2018-05-02T22:15:29.925Z,66.37
2018-05-02T22:19:32.410Z,66.43
2018-05-02T22:23:34.889Z,66.27
2018-05-02T22:27:37.338Z,66.32
2018-05-02T22:31:40.780Z,66.49
2018-05-02T22:35:44.206Z,66.59
2018-05-02T22:39:46.682Z,66.55
2018-05-02T22:43:49.187Z,66.46
2018-05-02T22:47:51.644Z,66.60
2018-05-02T22:51:54.128Z,66.45
2018-05-02T22:55:56.601Z,66.31
2018-05-02T22:59:59.071Z,66.31
2018-05-02T23:04:01.518Z,66.35
2018-05-02T23:08:03.997Z,66.01
2018-05-02T23:12:06.471Z,66.32
2018-05-02T23:16:08.990Z,66.35
2018-05-02T23:20:11.480Z,66.11
2018-05-02T23:24:13.958Z,66.43
2018-05-02T23:28:16.423Z,66.66
2018-05-02T23:32:18.866Z,67.02
2018-05-02T23:36:21.334Z,67.21
2018-05-02T23:40:23.799Z,67.55
2018-05-02T23:44:26.282Z,67.74
2018-05-02T23:48:28.767Z,67.51
2018-05-02T23:52:32.200Z,67.42
2018-05-02T23:56:35.640Z,68.02
